Time;durP1;ratioP1;P1;durP2;ratioP2;P2;SDS_P1;SDS_P2;PMS_P1;PMS_P2;Temp;Humidity;BMP_temperature;BMP_pressure;BME280_temperature;BME280_humidity;BME280_pressure;Samples;Min_cycle;Max_cycle;Signal;HPM_P1;HPM_P2
2022/11/10 00:00:18;;;;;;;65.22;34.25;;;;;;;4.40;73.51;94095.28;5090817;28;20020;-34
2022/11/10 00:02:43;;;;;;;66.50;34.65;;;;;;;4.62;72.62;94097.34;5091210;28;20039;-34
2022/11/10 00:05:09;;;;;;;53.03;28.70;;;;;;;4.55;72.45;94101.28;5091123;28;20024;-34
2022/11/10 00:07:35;;;;;;;53.20;30.60;;;;;;;4.30;72.50;94099.50;5090847;28;20466;-34
2022/11/10 00:10:01;;;;;;;59.53;30.30;;;;;;;4.31;73.22;94092.06;5090776;28;20038;-34
2022/11/10 00:12:26;;;;;;;60.95;32.10;;;;;;;4.37;73.09;94093.56;5091007;28;20109;-34
2022/11/10 00:17:36;;;;;;;52.83;26.88;;;;;;;4.34;72.55;94091.03;5091041;28;20069;-34
2022/11/10 00:20:03;;;;;;;51.42;29.58;;;;;;;4.25;72.67;94091.25;5072879;28;20051;-34
2022/11/10 00:22:28;;;;;;;42.90;26.02;;;;;;;4.26;72.08;94090.03;5090505;28;20114;-34
2022/11/10 00:24:54;;;;;;;44.17;25.10;;;;;;;4.30;72.49;94090.53;5090126;28;20032;-34
2022/11/10 00:27:19;;;;;;;45.67;27.60;;;;;;;4.34;72.32;94082.84;5090655;28;20531;-34
2022/11/10 00:29:44;;;;;;;48.83;27.40;;;;;;;4.40;72.69;94095.28;5090327;28;20081;-34
2022/11/10 00:32:10;;;;;;;52.95;29.25;;;;;;;4.16;73.09;94078.56;5090423;28;20107;-34
2022/11/10 00:34:35;;;;;;;48.03;28.10;;;;;;;4.40;73.25;94089.81;5090467;28;20030;-34
2022/11/10 00:37:01;;;;;;;49.47;26.73;;;;;;;4.43;73.42;94093.56;5090302;28;20032;-34
2022/11/10 00:39:27;;;;;;;60.30;31.80;;;;;;;4.37;74.14;94088.09;5090365;28;20024;-34
2022/11/10 00:41:53;;;;;;;59.63;31.10;;;;;;;4.39;74.99;94088.34;5090227;28;20028;-34
2022/11/10 00:44:18;;;;;;;74.00;36.58;;;;;;;4.37;75.03;94082.63;5090112;28;20040;-34
2022/11/10 00:46:44;;;;;;;67.82;34.05;;;;;;;4.33;75.12;94076.63;5090243;28;20496;-34
2022/11/10 00:49:10;;;;;;;65.28;33.17;;;;;;;4.45;74.50;94075.44;5090228;28;20032;-34
2022/11/10 00:51:35;;;;;;;52.38;31.77;;;;;;;4.49;74.37;94075.94;5090470;28;20104;-34
2022/11/10 00:54:01;;;;;;;69.50;34.95;;;;;;;4.53;75.35;94076.44;5090423;28;20495;-34
2022/11/10 00:56:26;;;;;;;78.80;38.60;;;;;;;4.65;75.26;94073.72;5090103;28;20024;-34
2022/11/10 00:58:52;;;;;;;68.90;34.63;;;;;;;4.65;75.08;94070.97;5090337;28;20093;-34
2022/11/10 01:01:19;;;;;;;64.32;34.55;;;;;;;4.63;75.55;94070.72;5090311;28;20035;-34
2022/11/10 01:03:44;;;;;;;63.28;31.45;;;;;;;4.79;75.26;94070.75;5089954;28;20024;-34
2022/11/10 01:06:12;;;;;;;51.75;27.60;;;;;;;4.73;74.87;94067.25;5089953;28;20032;-34
2022/11/10 01:08:38;;;;;;;51.20;26.10;;;;;;;4.69;75.04;94066.78;5072373;28;20034;-34
2022/11/10 01:11:19;;;;;;;65.05;30.65;;;;;;;4.77;74.73;94053.34;5090209;28;20028;-34
2022/11/10 01:13:45;;;;;;;51.92;28.35;;;;;;;4.80;74.64;94055.09;5090006;28;20020;-34
2022/11/10 01:16:11;;;;;;;48.58;28.10;;;;;;;4.99;74.50;94058.81;5090124;28;20407;-34
2022/11/10 01:18:37;;;;;;;56.75;28.70;;;;;;;5.07;74.74;94052.34;5089911;28;20484;-34
2022/11/10 01:21:03;;;;;;;54.20;29.48;;;;;;;5.11;74.77;94055.56;5089918;28;20028;-34
2022/11/10 01:23:28;;;;;;;57.88;30.15;;;;;;;5.07;74.60;94057.06;5089721;28;20030;-34
2022/11/10 01:25:58;;;;;;;65.95;31.42;;;;;;;4.99;75.30;94050.59;5090569;28;20035;-34
2022/11/10 01:28:24;;;;;;;63.63;32.83;;;;;;;5.01;75.50;94059.06;5093922;28;20054;-34
2022/11/10 01:30:56;;;;;;;69.45;39.13;;;;;;;5.03;75.44;94065.53;5094002;28;20480;-34
2022/11/10 01:33:22;;;;;;;91.40;51.38;;;;;;;5.10;75.38;94064.28;5093809;28;20515;-34
2022/11/10 01:35:47;;;;;;;78.68;44.05;;;;;;;5.22;75.23;94068.50;5093696;28;20020;-34
2022/11/10 01:38:13;;;;;;;85.68;44.58;;;;;;;5.14;75.84;94067.53;5093577;28;20035;-34
2022/11/10 01:40:38;;;;;;;66.00;37.47;;;;;;;5.24;75.65;94066.03;5093609;28;20031;-34
2022/11/10 01:43:04;;;;;;;54.78;31.48;;;;;;;5.05;76.12;94060.31;5093309;28;20089;-34
2022/11/10 01:45:49;;;;;;;48.70;32.47;;;;;;;5.11;77.06;94068.53;5093404;28;20028;-34
2022/11/10 01:48:42;;;;;;;59.20;33.35;;;;;;;5.22;76.91;94063.78;5093353;28;20039;-34
2022/11/10 01:51:34;;;;;;;57.78;33.10;;;;;;;5.31;77.29;94049.09;5093806;28;20035;-34
2022/11/10 01:54:07;;;;;;;64.43;30.75;;;;;;;5.44;77.18;94045.81;5092673;28;20126;-34
2022/11/10 01:56:35;;;;;;;54.95;32.92;;;;;;;5.48;77.40;94049.81;5093549;28;20032;-34
2022/11/10 01:59:09;;;;;;;61.22;33.25;;;;;;;5.60;77.25;94040.31;5093296;28;20027;-34
2022/11/10 02:01:34;;;;;;;62.97;33.00;;;;;;;5.68;76.72;94044.03;5075198;28;20039;-34
2022/11/10 02:04:03;;;;;;;57.55;30.63;;;;;;;5.78;75.19;94041.78;5093453;28;20083;-34
2022/11/10 02:06:34;;;;;;;52.30;26.80;;;;;;;5.72;74.27;94021.84;5075015;28;20031;-34
2022/11/10 02:08:59;;;;;;;54.40;29.90;;;;;;;5.84;73.51;94045.25;5075077;28;20032;-34
2022/11/10 02:11:26;;;;;;;49.42;28.52;;;;;;;5.71;74.20;94045.03;5093022;28;20054;-34
2022/11/10 02:13:52;;;;;;;56.50;29.23;;;;;;;5.61;74.66;94041.81;5075168;28;20028;-34
2022/11/10 02:16:18;;;;;;;54.45;29.35;;;;;;;5.70;74.95;94040.78;5074775;28;20039;-34
2022/11/10 02:18:43;;;;;;;53.13;31.50;;;;;;;5.65;74.94;94027.88;5093074;28;20120;-34
2022/11/10 02:21:09;;;;;;;54.67;28.85;;;;;;;5.79;75.49;94043.25;5092739;28;20514;-34
2022/11/10 02:23:35;;;;;;;55.65;30.70;;;;;;;5.73;75.91;94040.53;5092659;28;20032;-34
2022/11/10 02:26:02;;;;;;;51.65;28.75;;;;;;;5.66;76.15;94040.31;5092755;28;20115;-34
2022/11/10 02:28:27;;;;;;;52.67;29.98;;;;;;;5.68;76.45;94038.56;5092609;28;20028;-34
2022/11/10 02:30:53;;;;;;;48.78;29.80;;;;;;;5.64;76.47;94034.56;5074516;28;20031;-34
2022/11/10 02:33:19;;;;;;;50.63;30.67;;;;;;;5.69;76.85;94039.31;5092958;28;20027;-34
2022/11/10 02:35:45;;;;;;;61.28;31.38;;;;;;;5.69;77.68;94034.56;5092493;28;20039;-34
2022/11/10 02:38:12;;;;;;;56.00;30.40;;;;;;;5.72;77.56;94036.28;5092448;28;20028;-34
2022/11/10 02:40:37;;;;;;;62.13;32.33;;;;;;;5.71;78.24;94043.03;5092484;28;20036;-34
2022/11/10 02:43:04;;;;;;;52.88;31.40;;;;;;;5.79;78.08;94038.53;5092450;28;20028;-35
2022/11/10 02:45:29;;;;;;;52.70;30.67;;;;;;;5.77;78.23;94045.75;5074409;28;20115;-34
2022/11/10 02:47:55;;;;;;;50.13;28.75;;;;;;;5.88;78.23;94048.47;5092568;28;20032;-34
2022/11/10 02:50:20;;;;;;;54.58;30.67;;;;;;;5.88;78.12;94053.97;5092316;28;20043;-34
2022/11/10 02:52:45;;;;;;;51.70;29.33;;;;;;;5.92;78.05;94052.47;5092288;28;20410;-34
2022/11/10 02:55:11;;;;;;;49.55;29.35;;;;;;;5.85;78.95;94050.22;5092478;28;20027;-34
2022/11/10 02:57:36;;;;;;;55.75;31.65;;;;;;;5.99;78.81;94051.19;5092444;28;20031;-34
2022/11/10 03:00:03;;;;;;;51.47;29.63;;;;;;;6.00;78.92;94047.19;5092236;28;20028;-34
2022/11/10 03:02:29;;;;;;;48.63;27.52;;;;;;;6.08;79.40;94045.44;5092005;28;20817;-34
2022/11/10 03:04:54;;;;;;;48.88;29.15;;;;;;;6.08;79.94;94042.69;5091851;28;20024;-34
2022/11/10 03:07:19;;;;;;;44.53;27.02;;;;;;;6.18;79.97;94049.34;5091918;28;20032;-34
2022/11/10 03:09:45;;;;;;;54.08;28.90;;;;;;;6.31;79.24;94057.78;5091874;28;20023;-34
2022/11/10 03:12:10;;;;;;;52.55;29.30;;;;;;;6.35;78.06;94055.50;5091695;28;20023;-34
2022/11/10 03:14:36;;;;;;;51.58;30.35;;;;;;;6.36;78.18;94059.75;5091737;28;20024;-34
2022/11/10 03:17:01;;;;;;;50.53;29.00;;;;;;;6.41;77.95;94060.97;5091600;28;20085;-34
2022/11/10 03:19:27;;;;;;;44.38;29.02;;;;;;;6.42;77.49;94056.97;5092009;28;20028;-34
2022/11/10 03:21:52;;;;;;;45.83;27.92;;;;;;;6.49;77.53;94059.94;5091609;28;20446;-34
2022/11/10 03:24:18;;;;;;;49.00;29.55;;;;;;;6.53;77.13;94057.66;5091739;28;20028;-34
2022/11/10 03:26:43;;;;;;;46.50;28.10;;;;;;;6.50;77.43;94066.88;5091499;28;20392;-34
2022/11/10 03:29:08;;;;;;;49.95;28.70;;;;;;;6.31;78.80;94057.00;5091797;28;20461;-34
2022/11/10 03:31:34;;;;;;;43.70;27.45;;;;;;;6.43;78.99;94058.47;5091506;28;20403;-34
2022/11/10 03:33:59;;;;;;;42.33;28.30;;;;;;;6.49;78.88;94048.19;5091437;28;20380;-34
2022/11/10 03:36:25;;;;;;;51.92;29.52;;;;;;;6.54;78.76;94050.19;5091294;28;20020;-34
2022/11/10 03:38:50;;;;;;;52.08;30.17;;;;;;;6.67;78.46;94053.81;5091625;28;20032;-34
2022/11/10 03:41:15;;;;;;;48.33;28.65;;;;;;;6.72;77.95;94055.78;5091641;28;20500;-34
2022/11/10 03:43:41;;;;;;;45.20;28.70;;;;;;;6.62;77.28;94057.34;5091199;28;20535;-34
2022/11/10 03:46:07;;;;;;;42.90;27.55;;;;;;;6.70;77.31;94057.53;5091501;28;20484;-34
2022/11/10 03:48:32;;;;;;;49.05;29.52;;;;;;;6.50;77.90;94063.41;5090661;28;20427;-34
2022/11/10 03:50:58;;;;;;;46.30;28.70;;;;;;;6.55;78.04;94059.88;5091441;28;20051;-34
2022/11/10 03:53:23;;;;;;;46.40;27.98;;;;;;;6.45;78.68;94059.44;5091055;28;20071;-34
2022/11/10 03:55:49;;;;;;;42.72;27.17;;;;;;;6.51;78.98;94059.41;5091330;28;20020;-34
2022/11/10 03:58:14;;;;;;;49.50;28.20;;;;;;;6.50;79.36;94057.91;5091141;28;20044;-34
2022/11/10 04:00:40;;;;;;;52.60;30.00;;;;;;;6.56;79.88;94064.13;5090923;28;20423;-34
2022/11/10 04:03:05;;;;;;;46.00;27.23;;;;;;;6.51;80.24;94062.16;5090885;28;20515;-34
2022/11/10 04:11:01;;;;;;;45.33;27.23;;;;;;;6.60;80.92;94062.59;5091159;28;20034;-34
2022/11/10 04:16:10;;;;;;;51.30;29.70;;;;;;;6.52;81.15;94056.16;5090947;28;20027;-34
2022/11/10 04:18:36;;;;;;;46.22;29.55;;;;;;;6.63;81.80;94064.31;5090581;28;20024;-34
2022/11/10 04:21:02;;;;;;;49.10;27.38;;;;;;;6.73;81.53;94062.78;5090650;28;20024;-34
2022/11/10 04:23:33;;;;;;;51.30;28.58;;;;;;;6.78;81.69;94063.97;5090548;28;20019;-34
2022/11/10 04:26:28;;;;;;;43.22;27.77;;;;;;;6.88;81.66;94070.66;5090277;28;20024;-34
2022/11/10 04:29:01;;;;;;;51.17;29.55;;;;;;;6.96;80.79;94074.34;5090381;28;20026;-34
2022/11/10 04:31:28;;;;;;;48.28;29.02;;;;;;;7.01;79.85;94075.56;5090576;28;20024;-34
2022/11/10 04:33:54;;;;;;;43.53;28.17;;;;;;;6.93;80.35;94071.88;5090334;28;20484;-34
2022/11/10 04:36:22;;;;;;;46.45;28.63;;;;;;;6.99;80.27;94083.56;5090610;28;20411;-34
2022/11/10 04:38:48;;;;;;;45.72;28.00;;;;;;;7.02;79.77;94077.06;5090425;28;20024;-34
2022/11/10 04:41:14;;;;;;;45.83;26.13;;;;;;;7.11;79.90;94080.22;5090640;28;20028;-34
2022/11/10 04:43:41;;;;;;;46.22;28.73;;;;;;;7.16;79.65;94082.19;5090287;28;20055;-34
2022/11/10 04:46:11;;;;;;;43.20;27.60;;;;;;;7.15;79.79;94079.91;5090258;28;20051;-34
2022/11/10 04:48:36;;;;;;;41.47;28.75;;;;;;;7.17;79.54;94077.44;5072281;28;20031;-34
2022/11/10 04:51:04;;;;;;;45.38;28.60;;;;;;;7.17;79.36;94071.94;5090224;28;20024;-34
2022/11/10 04:53:30;;;;;;;44.85;28.75;;;;;;;7.22;79.40;94085.63;5090580;28;20569;-34
2022/11/10 04:55:55;;;;;;;41.42;28.17;;;;;;;7.23;79.05;94083.63;5090491;28;20020;-34
2022/11/10 04:58:21;;;;;;;49.92;30.05;;;;;;;7.32;79.11;94083.31;5090059;28;20035;-34
2022/11/10 05:00:46;;;;;;;60.00;36.42;;;;;;;7.33;78.71;94079.28;5092400;28;20020;-34
2022/11/10 05:03:12;;;;;;;60.35;36.70;;;;;;;7.20;78.72;94059.91;5094598;28;20074;-34
2022/11/10 05:05:38;;;;;;;53.58;32.17;;;;;;;7.31;79.14;94077.06;5094489;28;20012;-34
2022/11/10 05:08:04;;;;;;;47.45;30.15;;;;;;;7.31;79.47;94077.06;5094150;28;20027;-34
2022/11/10 05:10:30;;;;;;;47.50;29.85;;;;;;;7.37;79.03;94080.50;5094127;28;20028;-34
2022/11/10 05:12:56;;;;;;;45.90;29.85;;;;;;;7.39;78.82;94077.97;5076108;28;20031;-34
2022/11/10 05:15:23;;;;;;;48.10;30.92;;;;;;;7.38;78.92;94078.50;5094113;28;20024;-34
2022/11/10 05:17:49;;;;;;;45.20;30.55;;;;;;;7.41;78.56;94072.72;5094080;28;20019;-34
2022/11/10 05:20:16;;;;;;;48.58;31.55;;;;;;;7.45;78.39;94080.69;5093941;28;20047;-34
2022/11/10 05:23:36;;;;;;;50.88;33.38;;;;;;;7.39;78.57;94079.97;5094307;28;20050;-34
2022/11/10 05:25:31;;;;;;;51.67;31.48;;;;;;;7.39;78.93;94083.47;5093494;28;20024;-34
2022/11/10 05:27:56;;;;;;;55.40;32.05;;;;;;;7.46;78.33;94082.91;5094134;28;20081;-34
2022/11/10 05:30:21;;;;;;;51.35;32.80;;;;;;;7.49;78.50;94084.63;5093951;28;20023;-34
2022/11/10 05:32:47;;;;;;;54.20;34.50;;;;;;;7.40;79.11;94093.22;5094129;28;20016;-34
2022/11/10 05:35:12;;;;;;;53.88;34.30;;;;;;;7.47;79.02;94091.91;5093794;28;20016;-34
2022/11/10 05:37:41;;;;;;;60.08;35.92;;;;;;;7.49;79.12;94089.41;5093736;28;20089;-34
2022/11/10 05:40:07;;;;;;;63.00;35.20;;;;;;;7.37;79.65;94096.97;5093622;28;20026;-34
2022/11/10 05:42:32;;;;;;;56.30;36.55;;;;;;;7.40;79.72;94098.72;5093538;28;20035;-34
2022/11/10 05:44:58;;;;;;;61.85;38.50;;;;;;;7.49;79.84;94100.38;5093402;28;20478;-34
2022/11/10 05:47:23;;;;;;;60.15;36.58;;;;;;;7.60;79.70;94114.03;5093784;28;20541;-34
2022/11/10 05:49:49;;;;;;;85.95;46.13;;;;;;;7.44;79.94;94115.66;5093543;28;20099;-34
2022/11/10 05:52:14;;;;;;;104.85;51.60;;;;;;;7.51;80.39;94114.34;5093322;28;20435;-34
2022/11/10 05:54:39;;;;;;;96.55;52.72;;;;;;;7.54;80.43;94113.31;5093410;28;20016;-34
2022/11/10 05:57:05;;;;;;;87.82;50.65;;;;;;;7.53;80.79;94120.09;5093589;28;20020;-34
2022/11/10 05:59:30;;;;;;;79.53;46.60;;;;;;;7.43;81.56;94114.16;5093298;28;20514;-34
2022/11/10 06:01:56;;;;;;;51.85;34.92;;;;;;;7.53;81.80;94115.34;5093134;28;20031;-34
2022/11/10 06:04:21;;;;;;;62.63;37.08;;;;;;;7.45;81.80;94094.44;5093145;28;20090;-34
2022/11/10 06:06:48;;;;;;;52.15;31.73;;;;;;;7.76;81.59;94120.59;5093205;28;20024;-34
2022/11/10 06:09:14;;;;;;;51.45;34.47;;;;;;;7.79;82.15;94119.59;5093150;28;20020;-34
2022/11/10 06:11:39;;;;;;;58.92;34.67;;;;;;;7.89;82.16;94126.97;5092619;28;20070;-34
2022/11/10 06:14:05;;;;;;;53.58;33.67;;;;;;;8.01;81.16;94128.34;5091952;28;20035;-34
2022/11/10 06:16:30;;;;;;;52.60;34.53;;;;;;;8.05;81.13;94130.84;5092885;28;20125;-34
2022/11/10 06:18:56;;;;;;;56.55;32.92;;;;;;;8.14;81.12;94130.50;5093119;28;20016;-34
2022/11/10 06:21:21;;;;;;;56.72;34.45;;;;;;;8.24;80.68;94137.13;5092804;28;20039;-34
2022/11/10 06:23:47;;;;;;;54.47;33.30;;;;;;;8.31;79.74;94133.81;5092657;28;20028;-34
2022/11/10 06:26:12;;;;;;;59.25;31.95;;;;;;;8.38;79.97;94139.47;5092398;28;20028;-34
2022/11/10 06:28:37;;;;;;;51.35;32.75;;;;;;;8.43;80.02;94140.69;5092607;28;20031;-34
2022/11/10 06:31:03;;;;;;;48.28;31.63;;;;;;;8.55;79.73;94142.06;5092603;28;20101;-34
2022/11/10 06:33:28;;;;;;;57.72;33.22;;;;;;;8.64;79.44;94138.19;5092930;28;20017;-34
2022/11/10 06:35:54;;;;;;;57.13;33.20;;;;;;;8.78;79.36;94137.75;5092556;28;20024;-34
2022/11/10 06:38:19;;;;;;;96.60;47.78;;;;;;;8.93;78.71;94142.81;5092479;28;20157;-34
2022/11/10 06:40:45;;;;;;;107.65;54.33;;;;;;;9.08;78.60;94143.84;5092389;28;20052;-34
2022/11/10 06:43:11;;;;;;;120.35;63.65;;;;;;;9.09;78.42;94148.09;5092165;28;20032;-34
2022/11/10 06:45:37;;;;;;;74.88;44.53;;;;;;;9.23;77.46;94146.13;5092292;28;20052;-34
2022/11/10 06:48:10;;;;;;;67.05;42.35;;;;;;;9.34;76.68;94137.72;5092279;28;20460;-34
2022/11/10 06:50:36;;;;;;;80.43;41.80;;;;;;;9.56;76.39;94144.88;5092384;28;20027;-34
2022/11/10 06:53:03;;;;;;;64.35;40.65;;;;;;;9.65;76.21;94147.25;5092269;28;20020;-34
2022/11/10 06:55:29;;;;;;;61.72;39.97;;;;;;;9.76;75.66;94152.59;5092221;28;20020;-34
2022/11/10 06:57:55;;;;;;;55.03;34.72;;;;;;;9.81;75.24;94149.00;5092209;28;20027;-34
2022/11/10 07:00:21;;;;;;;45.30;31.45;;;;;;;9.91;75.33;94144.56;5073877;28;20020;-34
2022/11/10 07:02:47;;;;;;;37.25;28.20;;;;;;;10.06;74.47;94152.34;5071793;28;20040;-34
2022/11/10 07:05:14;;;;;;;38.58;27.77;;;;;;;10.17;74.54;94150.16;5071687;28;20107;-34
2022/11/10 07:07:40;;;;;;;38.78;27.00;;;;;;;10.43;74.67;94146.66;5071735;28;20024;-34
2022/11/10 07:10:06;;;;;;;38.05;27.08;;;;;;;10.68;73.28;94147.91;5071611;28;20029;-34
2022/11/10 07:12:32;;;;;;;37.80;24.27;;;;;;;10.85;72.05;94147.59;5071671;28;20111;-34
2022/11/10 07:14:58;;;;;;;35.42;23.98;;;;;;;11.15;71.23;94150.72;5071585;28;20032;-34
2022/11/10 07:17:24;;;;;;;33.55;25.02;;;;;;;11.42;70.61;94152.84;5083158;28;20020;-34
2022/11/10 07:19:50;;;;;;;33.45;22.77;;;;;;;11.87;69.38;94158.09;5091735;28;20103;-34
2022/11/10 07:22:17;;;;;;;39.55;23.83;;;;;;;12.38;67.97;94158.34;5091619;28;20103;-35
2022/11/10 07:24:42;;;;;;;39.30;24.65;;;;;;;13.30;64.60;94154.75;5090922;28;20032;-35
2022/11/10 07:27:08;;;;;;;31.92;21.77;;;;;;;14.35;61.45;94149.41;5071386;28;20093;-35
2022/11/10 07:29:34;;;;;;;31.45;21.60;;;;;;;15.48;58.52;94145.59;5081603;28;20027;-35
2022/11/10 07:32:00;;;;;;;32.75;20.75;;;;;;;16.36;55.34;94149.63;5091527;28;20024;-35
2022/11/10 07:34:26;;;;;;;28.88;20.23;;;;;;;17.12;52.98;94148.91;5091354;28;20019;-35
2022/11/10 07:36:52;;;;;;;30.35;20.90;;;;;;;17.72;50.55;94145.41;5091370;28;20020;-35
2022/11/10 07:39:18;;;;;;;24.27;18.88;;;;;;;18.23;48.29;94146.53;5091434;28;20028;-35
2022/11/10 07:41:44;;;;;;;20.88;15.80;;;;;;;19.07;45.88;94141.75;5091377;28;20410;-35
2022/11/10 07:44:10;;;;;;;22.52;15.40;;;;;;;19.88;44.05;94139.91;5091063;28;20428;-35
2022/11/10 07:46:36;;;;;;;20.88;15.93;;;;;;;20.65;42.07;94142.47;5091141;28;20556;-35
2022/11/10 07:49:02;;;;;;;20.30;15.77;;;;;;;21.22;40.41;94144.19;5091156;28;20027;-35
2022/11/10 07:51:29;;;;;;;22.80;16.42;;;;;;;21.33;38.30;94147.03;5091445;28;20028;-35
2022/11/10 07:53:55;;;;;;;23.33;17.23;;;;;;;21.14;38.76;94147.94;5091099;28;20024;-35
2022/11/10 07:56:21;;;;;;;21.15;17.20;;;;;;;21.38;39.33;94153.66;5091104;28;20490;-35
2022/11/10 07:58:48;;;;;;;22.15;16.95;;;;;;;22.12;38.23;94147.22;5090845;28;20460;-35
2022/11/10 08:01:16;;;;;;;19.75;15.43;;;;;;;22.68;36.96;94152.06;5090869;28;20039;-35
2022/11/10 08:03:42;;;;;;;18.80;14.38;;;;;;;22.71;36.48;94156.47;5090947;28;20031;-35
2022/11/10 08:06:08;;;;;;;19.45;13.35;;;;;;;22.85;36.38;94162.97;5090114;28;20032;-35
2022/11/10 08:08:37;;;;;;;20.17;14.98;;;;;;;23.15;35.76;94162.66;5090779;28;20027;-35
2022/11/10 08:11:06;;;;;;;19.65;14.82;;;;;;;23.66;34.81;94159.97;5091051;28;20028;-35
2022/11/10 08:13:34;;;;;;;20.55;15.40;;;;;;;23.85;33.83;94166.03;5090781;28;20035;-35
2022/11/10 08:16:00;;;;;;;19.85;14.88;;;;;;;23.71;33.65;94159.59;5091011;28;20024;-35
2022/11/10 08:18:29;;;;;;;19.70;15.02;;;;;;;24.07;33.19;94149.63;5090568;28;20475;-35
2022/11/10 08:20:55;;;;;;;21.45;16.05;;;;;;;24.34;33.18;94157.44;5090611;28;20056;-35
2022/11/10 08:23:20;;;;;;;23.80;17.13;;;;;;;24.32;32.72;94148.88;5090580;28;20058;-35
2022/11/10 08:25:47;;;;;;;19.38;15.05;;;;;;;24.31;33.57;94147.41;5090086;28;20090;-35
2022/11/10 08:28:16;;;;;;;21.30;16.13;;;;;;;23.94;33.37;94153.09;5090460;28;20028;-35
2022/11/10 08:30:44;;;;;;;24.45;16.75;;;;;;;23.26;33.63;94161.16;5090722;28;20043;-35
2022/11/10 08:33:15;;;;;;;19.02;15.02;;;;;;;24.15;33.37;94149.34;5090511;28;20024;-35
2022/11/10 08:35:42;;;;;;;18.17;14.38;;;;;;;24.44;33.42;94152.34;5088969;28;20047;-35
2022/11/10 08:38:13;;;;;;;20.60;15.43;;;;;;;24.38;32.59;94155.59;5090376;28;20134;-35
2022/11/10 08:40:39;;;;;;;20.20;15.57;;;;;;;24.76;33.02;94142.78;5090348;28;20393;-35
2022/11/10 08:43:08;;;;;;;17.00;15.07;;;;;;;25.09;31.83;94150.84;5090023;28;20051;-35
2022/11/10 08:45:41;;;;;;;21.35;14.05;;;;;;;25.48;30.66;94149.38;5090210;28;20044;-35
2022/11/10 08:48:13;;;;;;;19.27;14.43;;;;;;;25.64;30.89;94157.19;5090201;28;20103;-35
2022/11/10 08:50:39;;;;;;;18.02;13.88;;;;;;;26.29;30.43;94147.63;5090595;28;20411;-35
2022/11/10 08:53:08;;;;;;;16.05;13.45;;;;;;;26.36;29.29;94151.50;5090040;28;20028;-36
2022/11/10 08:55:34;;;;;;;17.33;13.88;;;;;;;26.53;29.13;94150.84;5072221;28;20031;-36
2022/11/10 08:58:02;;;;;;;14.48;12.85;;;;;;;26.21;29.24;94153.63;5090182;28;20027;-35
2022/11/10 09:00:30;;;;;;;15.43;13.10;;;;;;;25.73;29.60;94164.72;5089982;28;20075;-35
2022/11/10 09:03:02;;;;;;;20.35;14.73;;;;;;;26.09;30.29;94161.56;5090047;28;20097;-35
2022/11/10 09:05:28;;;;;;;20.13;15.02;;;;;;;26.34;29.59;94152.09;5090078;28;20028;-36
2022/11/10 09:07:54;;;;;;;23.20;14.23;;;;;;;26.59;29.28;94160.38;5090133;28;20024;-35
2022/11/10 09:10:20;;;;;;;19.63;15.07;;;;;;;26.93;28.81;94164.78;5090075;28;20073;-35
2022/11/10 09:12:45;;;;;;;17.48;14.00;;;;;;;27.16;27.85;94162.91;5090411;28;20073;-35
2022/11/10 09:15:11;;;;;;;19.35;15.38;;;;;;;27.43;28.24;94159.88;5090082;28;20101;-35
2022/11/10 09:17:38;;;;;;;25.88;14.60;;;;;;;27.77;27.25;94153.50;5089919;28;20101;-36
2022/11/10 09:20:05;;;;;;;16.70;14.32;;;;;;;27.49;27.69;94154.44;5090420;28;20028;-36
2022/11/10 09:22:31;;;;;;;17.33;14.15;;;;;;;27.55;27.49;94155.44;5090011;28;20503;-35
2022/11/10 09:24:57;;;;;;;16.67;13.95;;;;;;;27.17;27.73;94148.09;5089440;28;20072;-35
2022/11/10 09:27:22;;;;;;;18.05;13.90;;;;;;;27.76;27.73;94154.16;5089968;28;20073;-36
2022/11/10 09:29:48;;;;;;;20.95;14.68;;;;;;;27.77;27.18;94150.69;5089782;28;20023;-35
2022/11/10 09:32:14;;;;;;;20.48;14.45;;;;;;;27.81;27.64;94152.94;5089832;28;20050;-36
2022/11/10 09:34:39;;;;;;;20.75;15.13;;;;;;;28.01;27.06;94150.97;5072208;28;20023;-36
2022/11/10 09:37:05;;;;;;;18.77;14.73;;;;;;;27.69;26.91;94150.34;5089918;28;20024;-35
2022/11/10 09:39:31;;;;;;;16.70;12.95;;;;;;;26.95;27.27;94149.94;5089841;28;20536;-35
2022/11/10 09:41:56;;;;;;;18.73;15.60;;;;;;;26.18;28.10;94142.88;5089681;28;20048;-35
2022/11/10 09:45:17;;;;;;;20.75;14.82;;;;;;;26.75;28.16;94138.44;5089527;28;20160;-35
2022/11/10 09:48:05;;;;;;;17.50;14.50;;;;;;;26.51;28.99;94136.59;4984547;28;20102;-35
2022/11/10 09:50:46;;;;;;;17.65;14.30;;;;;;;26.81;28.41;94135.88;5030024;28;20568;-35
2022/11/10 09:53:15;;;;;;;16.85;14.10;;;;;;;26.82;28.43;94140.19;5073487;28;20123;-35
2022/11/10 09:56:01;;;;;;;19.13;14.75;;;;;;;26.62;28.84;94136.41;5055677;28;20035;-36
2022/11/10 09:58:37;;;;;;;18.60;14.57;;;;;;;26.09;28.74;94130.44;5055244;28;20055;-35
2022/11/10 10:01:17;;;;;;;16.65;14.13;;;;;;;25.87;29.73;94125.78;5085145;28;20032;-35
2022/11/10 10:03:49;;;;;;;20.38;13.63;;;;;;;25.71;29.73;94127.84;5093230;28;20031;-35
2022/11/10 10:06:15;;;;;;;16.27;14.50;;;;;;;25.92;29.78;94130.28;5075285;28;20024;-35
2022/11/10 10:08:41;;;;;;;16.30;14.25;;;;;;;26.20;28.54;94128.81;5075460;28;20051;-35
2022/11/10 10:11:20;;;;;;;15.20;13.65;;;;;;;26.04;28.92;94122.34;5093034;28;20559;-35
2022/11/10 10:14:05;;;;;;;17.15;13.52;;;;;;;26.15;28.47;94127.88;5075283;28;20458;-35
2022/11/10 10:16:39;;;;;;;18.08;13.02;;;;;;;26.06;28.62;94131.66;5093169;28;20031;-35
2022/11/10 10:19:07;;;;;;;20.88;13.38;;;;;;;26.26;28.76;94123.41;5093218;28;20028;-35
2022/11/10 10:22:01;;;;;;;18.17;14.07;;;;;;;26.24;28.42;94120.50;5093231;28;20052;-35
2022/11/10 10:24:29;;;;;;;16.05;12.98;;;;;;;26.45;28.21;94125.72;5092593;28;20517;-35
2022/11/10 10:26:57;;;;;;;16.30;14.13;;;;;;;26.15;28.60;94127.16;5092718;28;20077;-35
2022/11/10 10:29:24;;;;;;;15.00;13.40;;;;;;;26.31;28.48;94127.91;5074978;28;20450;-35
2022/11/10 10:31:51;;;;;;;19.13;14.13;;;;;;;26.70;28.08;94127.56;5074999;28;20394;-35
2022/11/10 10:34:27;;;;;;;15.75;12.82;;;;;;;26.48;27.61;94121.63;5092746;28;20047;-35
2022/11/10 10:36:52;;;;;;;16.27;13.38;;;;;;;26.44;27.73;94118.59;5074833;28;20035;-36
2022/11/10 10:39:24;;;;;;;16.40;13.57;;;;;;;26.31;28.12;94119.41;5092543;28;20024;-35
2022/11/10 10:41:49;;;;;;;15.77;12.80;;;;;;;26.32;28.31;94123.69;5092734;28;20415;-35
2022/11/10 10:44:17;;;;;;;14.30;11.82;;;;;;;26.48;27.78;94118.78;5092236;28;20051;-35
2022/11/10 10:46:49;;;;;;;19.35;13.15;;;;;;;26.52;27.91;94107.63;5092270;28;20065;-35
2022/11/10 10:49:24;;;;;;;18.02;13.07;;;;;;;26.69;27.34;94118.31;5092429;28;20548;-35
2022/11/10 10:52:01;;;;;;;19.88;14.18;;;;;;;26.76;27.62;94117.25;5092611;28;20039;-35
2022/11/10 10:54:31;;;;;;;15.73;12.80;;;;;;;26.74;27.73;94124.94;5092637;28;20029;-35
2022/11/10 10:57:14;;;;;;;15.63;13.93;;;;;;;26.69;27.74;94118.31;5092325;28;20499;-35
2022/11/10 10:59:39;;;;;;;18.55;13.05;;;;;;;27.00;27.14;94118.31;5091879;28;20039;-35
2022/11/10 11:02:29;;;;;;;19.48;12.50;;;;;;;26.87;27.23;94112.75;5074442;28;20073;-35
2022/11/10 11:05:16;;;;;;;20.17;15.65;;;;;;;26.83;27.40;94112.59;5092393;28;20028;-35
2022/11/10 11:07:54;;;;;;;14.63;13.00;;;;;;;26.64;27.49;94113.13;5092416;28;20035;-35
2022/11/10 11:10:26;;;;;;;18.48;13.82;;;;;;;26.25;28.22;94105.69;5092300;28;20058;-35
2022/11/10 11:12:52;;;;;;;15.98;13.95;;;;;;;26.24;28.18;94109.19;5092069;28;20040;-35
2022/11/10 11:15:20;;;;;;;20.08;14.82;;;;;;;26.28;28.47;94109.34;5092200;28;20400;-35
2022/11/10 11:18:07;;;;;;;16.77;14.05;;;;;;;25.93;28.89;94109.09;5091692;28;20114;-35
2022/11/10 11:20:48;;;;;;;20.58;15.82;;;;;;;25.41;29.66;94110.06;5073834;28;20028;-35
2022/11/10 11:23:14;;;;;;;18.85;14.48;;;;;;;25.29;29.57;94106.66;5091765;28;20213;-35
2022/11/10 11:25:41;;;;;;;17.67;14.82;;;;;;;25.02;29.72;94104.59;5091507;28;20110;-35
2022/11/10 11:28:28;;;;;;;20.23;15.52;;;;;;;24.94;30.03;94104.19;5073519;28;20035;-35
2022/11/10 11:31:26;;;;;;;20.70;14.73;;;;;;;24.65;30.65;94099.16;5071404;28;20082;-35
2022/11/10 11:33:58;;;;;;;19.15;14.63;;;;;;;24.22;31.68;94100.34;5071354;28;20086;-35
2022/11/10 11:36:39;;;;;;;28.65;16.25;;;;;;;24.55;31.28;94095.06;5071476;28;20035;-35